Salina, UT (84654)

23:20 MDT le 20 octobre 2014 (GMT -0600)
Rotary Park | Change Station
CLOSE
Current Station
Stations météorologiques personnelles
Location: Richfield, UT
Altitude: 5433 ft
Stations météo à proximité

Alt. 5433 ft 38.76 °N, 112.10 °W | Updated 33 seconds ago

Ciel dégagé
Ciel dégagé
56.3 ° F
Paraît 56.3 ° F
N
1.6
Vent Variable Vent de NO
Gusts 2.2 mph

Aujourd'hui
Haut(e) -- | Bas -- ° F
--% Risque de précip.
Hier
Haut(e) -- | Bas -- ° F
Precip. -- pouce
7:42 AM 6:41 PM
Lune descendante, 7% visible
Pression 29.86 pouce
Visibilité 10.0 Miles terrestres
Nuages Ciel dégagé
Point de rosée 41 ° F
Humidité 56%
Précipitations 0.00 pouce
Profondeur de la couche neigeuse 0 in , 0 in , 0 in
UV 0 sur 12
Pollen 1.80 sur 12
Qualité de l'air Non disponible.
Flu Activity Sporadic
METAR KMLF 210452Z AUTO 23006KT 10SM CLR 14/03 A2999 RMK AO2 SLP112 T01390028 TSNO

More Conditions Fewer Conditions

Pression 29.86 pouce
Visibilité 10.0 Miles terrestres
Nuages Ciel dégagé
Point de rosée 41 ° F
Humidité 56%
Précipitations 0.00 pouce
Profondeur de la couche neigeuse 0 in , 0 in , 0 in
UV 0 sur 12
Pollen 1.80 sur 12
Qualité de l'air Non disponible.
Flu Activity Sporadic
METAR KMLF 210452Z AUTO 23006KT 10SM CLR 14/03 A2999 RMK AO2 SLP112 T01390028 TSNO

More Conditions Fewer Conditions

10-Day Weather Forecast

Almanac

Astronomie

Oct. 20, 2014 Lever Coucher
Temps réel 07:42 MDT 18:41 MDT
Crépuscule civil 07:14 MDT 19:08 MDT
Crépuscule nautique 06:43 MDT 19:39 MDT
Crépuscule astronomique 06:13 MDT 20:10 MDT
Lune 04:35 MDT (10/20) 17:05 MDT (10/20)
Durée de lumière visible 11h 53m
Longueur du jour
10h 59m
Tomorrow will be 2m 24s shorter.
Lune descendante, 7% of the Moon is Illuminated
Oct 21
Lune descendante
Oct 23
Nouveau
Oct 30
Premier quartier
Nov 6
Pleine lune
Nov 14
Dernier quartier

Les extrêmes de température d’hier

State Highs State Lows

Community

WunderPhotos

Upload Photos

1,763,612 Photos téléchargées !

Nearby

Épaisseur de neige

Station Depth Altitude
Gooseberry R.S. 0 in 7920 ft
Pickle Keg 0 in 9600 ft
Farnsworth Lake 0 in 9600 ft
Black Flat-U.M. Creek 0 in 9400 ft
Box Creek 1 in 9800 ft

Activité sismique

Ville Distance Mag. Time & Date
No recent earthquake activity has been reported nearby.
Minimum magnitude displayed is 2.5.

Températures des eaux côtières

Lieu Température
Aucun rapport de station

Stations météo à proximité